createdAt,value
2023-04-02T00:01:17.172Z,97547.88
2023-04-02T00:04:22.508Z,97546.34
2023-04-02T00:07:21.451Z,97540.63
2023-04-02T00:09:49.887Z,97548.00
2023-04-02T00:12:20.311Z,97537.06
2023-04-02T00:14:53.605Z,97535.63
2023-04-02T00:17:24.670Z,97539.53
2023-04-02T00:19:57.066Z,97539.06
2023-04-02T00:22:28.536Z,97529.13
2023-04-02T00:25:00.392Z,97533.59
2023-04-02T00:27:31.967Z,97530.22
2023-04-02T00:29:59.774Z,97529.56
2023-04-02T00:32:29.143Z,97517.97
2023-04-02T00:34:58.740Z,97521.84
2023-04-02T00:37:28.993Z,97522.44
2023-04-02T00:40:01.632Z,97516.50
2023-04-02T00:42:31.574Z,97522.44
2023-04-02T00:44:59.606Z,97514.81
2023-04-02T00:47:31.849Z,97517.16
2023-04-02T00:50:02.611Z,97520.97
2023-04-02T00:52:31.851Z,97526.53
2023-04-02T00:55:06.262Z,97524.53
2023-04-02T00:57:33.913Z,97524.31
2023-04-02T01:00:12.689Z,97533.56
2023-04-02T01:02:41.020Z,97534.59
2023-04-02T01:05:22.652Z,97531.44
2023-04-02T01:08:03.675Z,97538.91
2023-04-02T01:10:50.284Z,97536.59
2023-04-02T01:13:25.606Z,97537.38
2023-04-02T01:15:56.413Z,97547.50
2023-04-02T01:18:50.574Z,97548.28
2023-04-02T01:21:33.892Z,97559.88
2023-04-02T01:24:04.896Z,97546.25
2023-04-02T01:26:45.829Z,97549.94
2023-04-02T01:29:18.642Z,97566.91
2023-04-02T01:31:47.389Z,97556.41
2023-04-02T01:34:17.640Z,97552.50
2023-04-02T01:36:55.717Z,97551.72
2023-04-02T01:39:35.275Z,97557.09
2023-04-02T01:42:11.437Z,97557.75
2023-04-02T01:44:44.431Z,97552.03
2023-04-02T01:47:13.273Z,97554.59
2023-04-02T01:49:42.610Z,97553.16
2023-04-02T01:52:16.282Z,97554.50
2023-04-02T01:54:44.482Z,97543.22
2023-04-02T01:57:12.595Z,97552.69
2023-04-02T01:59:41.255Z,97547.09
2023-04-02T02:02:12.483Z,97539.97
2023-04-02T02:04:41.336Z,97541.97
2023-04-02T02:07:14.877Z,97546.13
2023-04-02T02:09:44.865Z,97536.16
2023-04-02T02:12:14.055Z,97542.63
2023-04-02T02:14:49.044Z,97539.06
2023-04-02T02:17:18.461Z,97534.91
2023-04-02T02:19:48.000Z,97539.81
2023-04-02T02:22:21.986Z,97534.69
2023-04-02T02:24:49.259Z,97534.16
2023-04-02T02:27:47.089Z,97532.34
2023-04-02T02:30:20.060Z,97535.59
2023-04-02T02:32:52.970Z,97533.81
2023-04-02T02:35:23.746Z,97526.13
2023-04-02T02:37:57.902Z,97537.72
2023-04-02T02:40:31.905Z,97538.94
2023-04-02T02:43:04.449Z,97544.66
2023-04-02T02:45:38.019Z,97551.00
2023-04-02T02:48:10.869Z,97551.34
2023-04-02T02:50:38.933Z,97550.00
2023-04-02T02:53:20.214Z,97557.94
2023-04-02T02:55:49.465Z,97551.78
2023-04-02T02:58:27.500Z,97555.81
2023-04-02T03:01:18.821Z,97556.28
2023-04-02T03:03:48.473Z,97559.84
2023-04-02T03:06:17.409Z,97552.69
2023-04-02T03:08:56.911Z,97555.16
2023-04-02T03:11:36.940Z,97564.00
2023-04-02T03:14:18.433Z,97553.53
2023-04-02T03:16:49.931Z,97559.09
2023-04-02T03:19:28.491Z,97548.19
2023-04-02T03:22:02.999Z,97549.88
2023-04-02T03:24:41.610Z,97555.94
2023-04-02T03:27:12.111Z,97557.91
2023-04-02T03:29:45.550Z,97550.34
2023-04-02T03:32:20.774Z,97550.13
2023-04-02T03:34:52.025Z,97550.34
2023-04-02T03:37:24.113Z,97551.03
2023-04-02T03:39:54.905Z,97565.41
2023-04-02T03:42:26.896Z,97566.94
2023-04-02T03:45:03.289Z,97573.66
2023-04-02T03:47:40.054Z,97565.97
2023-04-02T03:50:11.341Z,97574.53
2023-04-02T03:52:39.604Z,97580.78
2023-04-02T03:55:16.011Z,97577.44
2023-04-02T03:57:51.878Z,97587.69
2023-04-02T04:00:24.307Z,97586.47
2023-04-02T04:03:02.586Z,97584.22
2023-04-02T04:05:34.624Z,97583.22
2023-04-02T04:08:06.564Z,97593.81
2023-04-02T04:10:36.224Z,97605.84
2023-04-02T04:13:07.328Z,97608.66
2023-04-02T04:15:38.375Z,97614.56
2023-04-02T04:18:19.586Z,97622.81
2023-04-02T04:20:56.465Z,97626.50
2023-04-02T04:23:30.701Z,97627.03
2023-04-02T04:26:09.859Z,97618.59
2023-04-02T04:28:45.080Z,97630.94
2023-04-02T04:31:21.547Z,97640.31
2023-04-02T04:34:03.552Z,97634.44
2023-04-02T04:36:41.591Z,97636.06
2023-04-02T04:39:18.006Z,97651.59
2023-04-02T04:41:51.899Z,97638.53
2023-04-02T04:44:24.840Z,97656.28
2023-04-02T04:47:00.148Z,97649.69
2023-04-02T04:49:35.601Z,97652.78
2023-04-02T04:52:09.154Z,97655.03
2023-04-02T04:54:39.643Z,97648.66
2023-04-02T04:57:22.867Z,97651.81
2023-04-02T04:59:55.602Z,97654.38
2023-04-02T05:02:26.775Z,97650.22
2023-04-02T05:04:57.133Z,97657.69
2023-04-02T05:07:29.440Z,97661.63
2023-04-02T05:10:02.823Z,97659.38
2023-04-02T05:12:40.462Z,97668.84
2023-04-02T05:15:16.121Z,97665.06
2023-04-02T05:17:50.463Z,97666.94
2023-04-02T05:20:26.506Z,97667.06
2023-04-02T05:23:02.397Z,97671.19
2023-04-02T05:25:31.794Z,97678.00
2023-04-02T05:28:07.532Z,97685.25
2023-04-02T05:30:49.789Z,97685.91
2023-04-02T05:33:27.143Z,97690.13
2023-04-02T05:36:00.990Z,97687.19
2023-04-02T05:38:32.476Z,97680.38
2023-04-02T05:41:03.347Z,97685.72
2023-04-02T05:43:34.175Z,97686.34
2023-04-02T05:46:13.975Z,97687.69
2023-04-02T05:48:46.204Z,97687.44
2023-04-02T05:51:20.971Z,97689.94
2023-04-02T05:53:51.494Z,97693.84
2023-04-02T05:56:22.626Z,97702.06
2023-04-02T05:58:54.600Z,97695.63
2023-04-02T06:01:39.283Z,97702.78
2023-04-02T06:04:21.215Z,97715.41
2023-04-02T06:06:57.954Z,97712.63
2023-04-02T06:09:34.428Z,97713.38
2023-04-02T06:12:12.931Z,97720.66
2023-04-02T06:14:40.786Z,97718.28
2023-04-02T06:17:12.605Z,97710.16
2023-04-02T06:19:39.888Z,97721.22
2023-04-02T06:22:22.872Z,97719.97
2023-04-02T06:25:00.042Z,97717.72
2023-04-02T06:27:28.178Z,97717.19
2023-04-02T06:30:01.393Z,97717.72
2023-04-02T06:32:30.711Z,97712.13
2023-04-02T06:34:58.247Z,97713.72
2023-04-02T06:37:32.318Z,97716.50
2023-04-02T06:40:38.411Z,97718.38
2023-04-02T06:43:33.192Z,97729.22
2023-04-02T06:46:42.722Z,97726.50
2023-04-02T06:49:19.348Z,97736.19
2023-04-02T06:51:51.197Z,97727.88
2023-04-02T06:54:21.072Z,97731.31
2023-04-02T06:56:56.310Z,97730.38
2023-04-02T06:59:31.474Z,97735.59
2023-04-02T07:02:06.709Z,97743.44
2023-04-02T07:04:34.580Z,97755.59
2023-04-02T07:07:02.244Z,97757.44
2023-04-02T07:09:34.425Z,97760.59
2023-04-02T07:12:11.431Z,97769.97
2023-04-02T07:14:38.596Z,97767.91
2023-04-02T07:17:05.881Z,97766.38
2023-04-02T07:19:33.100Z,97767.63
2023-04-02T07:22:00.428Z,97777.91
2023-04-02T07:24:35.528Z,97774.66
2023-04-02T07:27:02.582Z,97778.38
2023-04-02T07:29:29.719Z,97779.34
2023-04-02T07:31:56.688Z,97780.41
2023-04-02T07:34:25.566Z,97792.91
2023-04-02T07:36:52.885Z,97780.88
2023-04-02T07:39:19.945Z,97784.31
2023-04-02T07:41:56.081Z,97798.03
2023-04-02T07:44:23.421Z,97795.59
2023-04-02T07:46:50.736Z,97795.63
2023-04-02T07:49:17.720Z,97795.19
2023-04-02T07:51:44.937Z,97796.81
2023-04-02T07:54:13.148Z,97809.75
2023-04-02T07:56:43.243Z,97805.53
2023-04-02T07:59:11.962Z,97811.06
2023-04-02T08:01:40.232Z,97810.34
2023-04-02T08:04:15.965Z,97822.84
2023-04-02T08:06:43.406Z,97810.50
2023-04-02T08:09:10.358Z,97803.28
2023-04-02T08:11:37.317Z,97807.50
2023-04-02T08:14:04.326Z,97808.88
2023-04-02T08:16:46.137Z,97811.59
2023-04-02T08:19:13.788Z,97809.13
2023-04-02T08:21:40.762Z,97820.06
2023-04-02T08:24:08.051Z,97813.66
2023-04-02T08:26:35.135Z,97816.38
2023-04-02T08:29:02.247Z,97816.94
2023-04-02T08:31:30.400Z,97816.03
2023-04-02T08:33:58.896Z,97810.97
2023-04-02T08:36:30.729Z,97826.72
2023-04-02T08:38:57.736Z,97819.56
2023-04-02T08:41:31.124Z,97825.81
2023-04-02T08:44:16.447Z,97827.97
2023-04-02T08:46:48.450Z,97828.50
2023-04-02T08:49:19.762Z,97832.91
2023-04-02T08:51:47.670Z,97829.59
2023-04-02T08:54:22.415Z,97827.56
2023-04-02T08:56:55.625Z,97832.53
2023-04-02T08:59:31.914Z,97831.06
2023-04-02T09:02:07.084Z,97832.38
2023-04-02T09:04:36.977Z,97840.13
2023-04-02T09:07:04.461Z,97838.56
2023-04-02T09:09:38.016Z,97835.22
2023-04-02T09:12:07.344Z,97837.63
2023-04-02T09:14:43.473Z,97837.16
2023-04-02T09:17:20.107Z,97831.56
2023-04-02T09:19:56.252Z,97827.59
2023-04-02T09:22:26.209Z,97828.72
2023-04-02T09:24:54.044Z,97821.31
2023-04-02T09:27:23.601Z,97824.25
2023-04-02T09:30:00.785Z,97834.72
2023-04-02T09:32:40.549Z,97827.03
2023-04-02T09:35:24.586Z,97836.13
2023-04-02T09:38:17.130Z,97830.69
2023-04-02T09:40:48.491Z,97835.59
2023-04-02T09:43:17.945Z,97835.34
2023-04-02T09:45:56.275Z,97829.91
2023-04-02T09:48:26.464Z,97827.56
2023-04-02T09:51:07.202Z,97831.97
2023-04-02T09:53:36.149Z,97833.00
2023-04-02T09:56:12.967Z,97835.06
2023-04-02T09:58:41.170Z,97824.44
2023-04-02T10:01:28.495Z,97826.22
2023-04-02T10:03:56.330Z,97810.00
2023-04-02T10:06:25.956Z,97826.53
2023-04-02T10:08:53.212Z,97827.00
2023-04-02T10:11:26.960Z,97828.31
2023-04-02T10:14:00.586Z,97826.63
2023-04-02T10:16:33.279Z,97834.22
2023-04-02T10:19:07.181Z,97823.06
2023-04-02T10:21:37.505Z,97831.88
2023-04-02T10:24:12.177Z,97825.06
2023-04-02T10:26:51.790Z,97827.09
2023-04-02T10:29:33.882Z,97822.34
2023-04-02T10:32:07.152Z,97824.00
2023-04-02T10:34:41.696Z,97814.94
2023-04-02T10:37:37.598Z,97823.22
2023-04-02T10:40:11.404Z,97813.50
2023-04-02T10:42:44.862Z,97828.72
2023-04-02T10:45:22.152Z,97826.47
2023-04-02T10:47:57.871Z,97813.47
2023-04-02T10:50:32.536Z,97828.31
2023-04-02T10:53:11.447Z,97829.31
2023-04-02T10:55:43.815Z,97818.06
2023-04-02T10:58:22.790Z,97815.97
2023-04-02T11:00:53.750Z,97817.53
2023-04-02T11:03:31.790Z,97809.84
2023-04-02T11:06:02.415Z,97819.00
2023-04-02T11:08:40.640Z,97816.84
2023-04-02T11:11:12.193Z,97804.78
2023-04-02T11:13:51.012Z,97811.97
2023-04-02T11:16:18.466Z,97818.22
2023-04-02T11:19:17.923Z,97810.63
2023-04-02T11:21:58.149Z,97804.94
2023-04-02T11:24:39.271Z,97809.50
2023-04-02T11:27:16.512Z,97804.06
2023-04-02T11:29:46.154Z,97805.97
2023-04-02T11:32:31.206Z,97806.41
2023-04-02T11:35:28.022Z,97809.50
2023-04-02T11:37:56.776Z,97811.25
2023-04-02T11:40:49.386Z,97811.50
2023-04-02T11:43:48.435Z,97804.19
2023-04-02T11:46:40.291Z,97812.13
2023-04-02T11:49:41.201Z,97811.53
2023-04-02T11:52:29.869Z,97806.50
2023-04-02T11:54:59.601Z,97811.47
2023-04-02T11:57:43.860Z,97813.66
2023-04-02T12:00:36.333Z,97809.09
2023-04-02T12:03:30.084Z,97808.25
2023-04-02T12:06:06.352Z,97809.44
2023-04-02T12:08:56.952Z,97808.97
2023-04-02T12:11:35.345Z,97809.50
2023-04-02T12:14:27.487Z,97810.50
2023-04-02T12:16:54.784Z,97806.06
2023-04-02T12:19:25.210Z,97805.78
2023-04-02T12:21:53.290Z,97798.53
2023-04-02T12:24:22.502Z,97799.91
2023-04-02T12:26:49.643Z,97805.13
2023-04-02T12:29:26.937Z,97803.84
2023-04-02T12:31:55.783Z,97801.22
2023-04-02T12:34:25.582Z,97794.88
2023-04-02T12:36:55.090Z,97794.03
2023-04-02T12:39:22.724Z,97800.25
2023-04-02T12:41:49.805Z,97799.50
2023-04-02T12:44:21.750Z,97802.66
2023-04-02T12:46:49.946Z,97790.72
2023-04-02T12:49:25.250Z,97787.91
2023-04-02T12:51:53.136Z,97791.53
2023-04-02T12:54:21.016Z,97794.38
2023-04-02T12:56:48.988Z,97790.78
2023-04-02T12:59:29.579Z,97799.63
2023-04-02T13:01:58.268Z,97801.69
2023-04-02T13:04:25.516Z,97791.53
2023-04-02T13:06:56.898Z,97784.75
2023-04-02T13:09:30.876Z,97798.31
2023-04-02T13:11:58.447Z,97802.19
2023-04-02T13:14:27.308Z,97805.25
2023-04-02T13:16:54.976Z,97808.13
2023-04-02T13:19:28.966Z,97812.50
2023-04-02T13:21:58.524Z,97803.59
2023-04-02T13:24:26.996Z,97796.72
2023-04-02T13:26:56.018Z,97793.50
2023-04-02T13:29:29.851Z,97794.47
2023-04-02T13:31:59.375Z,97786.13
2023-04-02T13:34:26.609Z,97785.63
2023-04-02T13:36:53.780Z,97795.28
2023-04-02T13:39:21.704Z,97784.88
2023-04-02T13:41:51.528Z,97793.75
2023-04-02T13:44:21.679Z,97791.44
2023-04-02T13:46:50.493Z,97791.25
2023-04-02T13:49:17.604Z,97791.53
2023-04-02T13:51:47.320Z,97787.94
2023-04-02T13:54:25.764Z,97787.94
2023-04-02T13:56:52.960Z,97792.16
2023-04-02T13:59:20.546Z,97785.09
2023-04-02T14:01:51.187Z,97789.13
2023-04-02T14:04:22.020Z,97782.63
2023-04-02T14:07:06.691Z,97783.31
2023-04-02T14:09:44.511Z,97771.00
2023-04-02T14:12:20.674Z,97772.94
2023-04-02T14:15:01.963Z,97768.16
2023-04-02T14:17:37.877Z,97763.97
2023-04-02T14:20:17.068Z,97773.38
2023-04-02T14:22:59.021Z,97773.81
2023-04-02T14:25:37.101Z,97767.69
2023-04-02T14:28:15.984Z,97772.50
2023-04-02T14:30:54.977Z,97780.94
2023-04-02T14:33:34.062Z,97779.84
2023-04-02T14:36:13.050Z,97778.25
2023-04-02T14:38:47.251Z,97776.41
2023-04-02T14:41:22.601Z,97764.09
2023-04-02T14:43:53.789Z,97762.53
2023-04-02T14:46:26.029Z,97760.78
2023-04-02T14:48:57.081Z,97760.38
2023-04-02T14:51:30.858Z,97760.66
2023-04-02T14:54:04.656Z,97758.38
2023-04-02T14:56:38.247Z,97756.19
2023-04-02T14:59:21.057Z,97769.94
2023-04-02T15:01:53.013Z,97772.53
2023-04-02T15:04:28.114Z,97769.22
2023-04-02T15:06:58.008Z,97768.19
2023-04-02T15:09:28.637Z,97762.50
2023-04-02T15:11:59.432Z,97768.28
2023-04-02T15:14:31.689Z,97774.47
2023-04-02T15:16:58.710Z,97772.75
2023-04-02T15:19:27.108Z,97774.69
2023-04-02T15:22:26.803Z,97773.25
2023-04-02T15:25:05.367Z,97770.94
2023-04-02T15:27:48.325Z,97777.78
2023-04-02T15:30:20.641Z,97790.38
2023-04-02T15:32:49.044Z,97790.72
2023-04-02T15:35:35.503Z,97782.72
2023-04-02T15:38:12.018Z,97786.97
2023-04-02T15:40:50.518Z,97780.25
2023-04-02T15:43:22.771Z,97787.06
2023-04-02T15:45:58.107Z,97789.94
2023-04-02T15:48:52.988Z,97792.84
2023-04-02T15:51:33.137Z,97800.22
2023-04-02T15:54:10.706Z,97795.59
2023-04-02T15:56:48.587Z,97808.09
2023-04-02T15:59:40.790Z,97805.06
2023-04-02T16:02:32.838Z,97800.69
2023-04-02T16:05:04.918Z,97812.91
2023-04-02T16:08:01.264Z,97805.47
2023-04-02T16:10:40.895Z,97802.63
2023-04-02T16:13:16.951Z,97808.06
2023-04-02T16:15:49.307Z,97805.22
2023-04-02T16:18:22.159Z,97811.47
2023-04-02T16:20:53.047Z,97819.78
2023-04-02T16:23:34.115Z,97821.09
2023-04-02T16:26:09.195Z,97819.53
2023-04-02T16:28:38.720Z,97823.94
2023-04-02T16:31:13.873Z,97832.75
2023-04-02T16:33:54.614Z,97831.69
2023-04-02T16:36:34.783Z,97831.69
2023-04-02T16:39:14.569Z,97827.53
2023-04-02T16:41:53.870Z,97838.41
2023-04-02T16:44:30.658Z,97838.66
2023-04-02T16:47:11.242Z,97837.56
2023-04-02T16:49:46.651Z,97848.16
2023-04-02T16:52:29.067Z,97846.03
2023-04-02T16:55:11.547Z,97852.75
2023-04-02T16:57:48.849Z,97850.63
2023-04-02T17:00:23.817Z,97863.81
2023-04-02T17:03:06.155Z,97857.53
2023-04-02T17:05:40.365Z,97863.19
2023-04-02T17:08:17.352Z,97871.69
2023-04-02T17:10:51.224Z,97866.16
2023-04-02T17:13:27.928Z,97876.84
2023-04-02T17:16:06.329Z,97882.13
2023-04-02T17:18:34.107Z,97877.97
2023-04-02T17:21:08.464Z,97881.53
2023-04-02T17:23:55.780Z,97882.72
2023-04-02T17:26:28.021Z,97878.50
2023-04-02T17:28:58.100Z,97887.97
2023-04-02T17:31:27.434Z,97894.13
2023-04-02T17:33:54.578Z,97894.59
2023-04-02T17:36:34.891Z,97889.91
2023-04-02T17:39:14.536Z,97894.00
2023-04-02T17:41:51.410Z,97905.06
2023-04-02T17:44:34.853Z,97904.28
2023-04-02T17:47:09.459Z,97901.16
2023-04-02T17:49:46.740Z,97915.06
2023-04-02T17:52:20.389Z,97914.78
2023-04-02T17:54:54.250Z,97919.88
2023-04-02T17:57:38.893Z,97923.97
2023-04-02T18:00:22.975Z,97933.69
2023-04-02T18:03:00.815Z,97937.69
2023-04-02T18:05:32.847Z,97935.03
2023-04-02T18:08:14.632Z,97940.16
2023-04-02T18:10:49.118Z,97945.78
2023-04-02T18:13:30.873Z,97942.66
2023-04-02T18:16:24.919Z,97952.13
2023-04-02T18:19:10.727Z,97949.72
2023-04-02T18:21:46.692Z,97955.59
2023-04-02T18:24:39.179Z,97952.63
2023-04-02T18:27:28.817Z,97962.88
2023-04-02T18:30:09.482Z,97970.75
2023-04-02T18:32:54.052Z,97975.00
2023-04-02T18:35:25.600Z,97971.53
2023-04-02T18:38:11.667Z,97976.31
2023-04-02T18:40:46.811Z,97977.00
2023-04-02T18:43:28.224Z,97983.09
2023-04-02T18:46:05.230Z,97979.09
2023-04-02T18:48:41.593Z,97986.41
2023-04-02T18:51:14.526Z,97986.88
2023-04-02T18:53:43.247Z,97987.13
2023-04-02T18:56:14.193Z,97988.34
2023-04-02T18:58:52.789Z,97986.00
2023-04-02T19:01:28.025Z,97987.19
2023-04-02T19:03:57.083Z,97983.13
2023-04-02T19:06:28.885Z,97989.13
2023-04-02T19:08:59.704Z,97990.59
2023-04-02T19:11:31.293Z,97994.16
2023-04-02T19:14:01.489Z,97992.59
2023-04-02T19:17:09.545Z,97990.81
2023-04-02T19:19:45.721Z,97990.63
2023-04-02T19:22:30.067Z,97995.66
2023-04-02T19:25:14.888Z,98008.09
2023-04-02T19:27:55.104Z,98002.75
2023-04-02T19:30:41.093Z,98007.72
2023-04-02T19:33:21.169Z,98003.03
2023-04-02T19:35:56.746Z,98004.13
2023-04-02T19:38:41.914Z,98007.38
2023-04-02T19:41:21.199Z,98013.75
2023-04-02T19:43:48.235Z,98005.81
2023-04-02T19:46:15.585Z,98007.38
2023-04-02T19:48:49.807Z,98018.44
2023-04-02T19:51:17.046Z,98005.81
2023-04-02T19:53:44.088Z,98016.53
2023-04-02T19:56:11.093Z,98013.22
2023-04-02T19:58:38.375Z,98011.16
2023-04-02T20:01:05.372Z,98013.41
2023-04-02T20:03:32.630Z,98015.41
2023-04-02T20:06:01.294Z,98018.31
2023-04-02T20:08:29.248Z,98020.88
2023-04-02T20:11:01.098Z,98011.03
2023-04-02T20:13:28.191Z,98025.84
2023-04-02T20:16:02.351Z,98013.69
2023-04-02T20:18:30.020Z,98018.91
2023-04-02T20:20:57.044Z,98017.25
2023-04-02T20:23:25.494Z,98015.88
2023-04-02T20:25:56.210Z,98015.56
2023-04-02T20:28:24.828Z,98016.00
2023-04-02T20:30:52.523Z,98022.00
2023-04-02T20:33:22.122Z,98025.44
2023-04-02T20:35:50.706Z,98020.97
2023-04-02T20:38:18.431Z,98034.47
2023-04-02T20:40:53.071Z,98031.31
2023-04-02T20:43:20.068Z,98030.63
2023-04-02T20:45:54.694Z,98027.03
2023-04-02T20:48:22.350Z,98027.09
2023-04-02T20:50:49.785Z,98026.16
2023-04-02T20:53:17.279Z,98027.25
2023-04-02T20:55:48.618Z,98036.81
2023-04-02T20:58:19.002Z,98039.66
2023-04-02T21:00:46.166Z,98036.75
2023-04-02T21:03:13.240Z,98033.81
2023-04-02T21:05:43.685Z,98040.38
2023-04-02T21:08:10.975Z,98033.31
2023-04-02T21:10:38.719Z,98029.41
2023-04-02T21:13:06.041Z,98039.09
2023-04-02T21:15:34.639Z,98033.63
2023-04-02T21:18:01.897Z,98035.81
2023-04-02T21:20:29.223Z,98032.53
2023-04-02T21:22:56.159Z,98036.31
2023-04-02T21:25:23.058Z,98030.47
2023-04-02T21:27:52.943Z,98044.91
2023-04-02T21:30:23.364Z,98048.91
2023-04-02T21:32:51.733Z,98042.59
2023-04-02T21:35:18.737Z,98037.50
2023-04-02T21:37:45.730Z,98038.13
2023-04-02T21:40:12.656Z,98042.91
2023-04-02T21:42:39.626Z,98040.56
2023-04-02T21:45:07.392Z,98049.44
2023-04-02T21:47:34.348Z,98059.13
2023-04-02T21:50:02.985Z,98049.66
2023-04-02T21:52:29.930Z,98053.06
2023-04-02T21:54:56.878Z,98062.56
2023-04-02T21:57:24.039Z,98050.75
2023-04-02T21:59:51.020Z,98049.75
2023-04-02T22:02:17.967Z,98050.56
2023-04-02T22:04:45.204Z,98041.06
2023-04-02T22:07:13.763Z,98049.56
2023-04-02T22:09:40.727Z,98054.56
2023-04-02T22:12:08.210Z,98051.59
2023-04-02T22:14:35.479Z,98055.16
2023-04-02T22:17:03.491Z,98061.34
2023-04-02T22:19:30.933Z,98062.16
2023-04-02T22:21:57.869Z,98058.59
2023-04-02T22:24:26.619Z,98062.72
2023-04-02T22:26:53.932Z,98067.84
2023-04-02T22:29:21.350Z,98062.56
2023-04-02T22:31:48.277Z,98057.06
2023-04-02T22:34:15.854Z,98061.22
2023-04-02T22:36:42.947Z,98061.56
2023-04-02T22:39:12.141Z,98058.59
2023-04-02T22:41:40.612Z,98060.16
2023-04-02T22:44:07.952Z,98062.94
2023-04-02T22:46:35.129Z,98070.81
2023-04-02T22:49:02.246Z,98079.72
2023-04-02T22:51:29.509Z,98076.59
2023-04-02T22:53:56.699Z,98081.13
2023-04-02T22:56:26.706Z,98077.59
2023-04-02T22:58:55.055Z,98072.53
2023-04-02T23:01:25.012Z,98069.03
2023-04-02T23:03:53.266Z,98076.72
2023-04-02T23:06:20.896Z,98083.22
2023-04-02T23:08:48.160Z,98076.16
2023-04-02T23:11:17.242Z,98078.34
2023-04-02T23:13:46.841Z,98076.19
2023-04-02T23:16:15.555Z,98081.69
2023-04-02T23:18:43.764Z,98072.03
2023-04-02T23:21:10.871Z,98072.41
2023-04-02T23:23:38.232Z,98078.91
2023-04-02T23:26:07.677Z,98076.56
2023-04-02T23:28:34.881Z,98075.97
2023-04-02T23:31:04.593Z,98071.84
2023-04-02T23:33:33.134Z,98081.66
2023-04-02T23:36:00.212Z,98080.06
2023-04-02T23:38:27.576Z,98079.22
2023-04-02T23:40:54.999Z,98082.97
2023-04-02T23:43:21.932Z,98074.28
2023-04-02T23:45:49.063Z,98079.41
2023-04-02T23:48:16.881Z,98074.50
2023-04-02T23:50:47.465Z,98077.84
2023-04-02T23:53:14.491Z,98068.19
2023-04-02T23:55:41.574Z,98064.41
2023-04-02T23:58:08.562Z,98078.00
